createdAt,value
2023-03-19T00:04:28.869Z,26.90
2023-03-19T00:09:31.857Z,27.50
2023-03-19T00:14:34.814Z,26.00
2023-03-19T00:19:37.649Z,28.10
2023-03-19T00:24:40.546Z,27.20
2023-03-19T00:29:43.390Z,29.50
2023-03-19T00:34:47.744Z,24.30
2023-03-19T00:39:50.753Z,26.00
2023-03-19T00:44:53.687Z,29.80
2023-03-19T00:49:57.910Z,28.70
2023-03-19T00:55:00.768Z,28.30
2023-03-19T01:00:04.678Z,28.50
2023-03-19T01:05:08.298Z,25.90
2023-03-19T01:10:12.893Z,29.00
2023-03-19T01:15:16.375Z,27.40
2023-03-19T01:20:19.288Z,25.90
2023-03-19T01:25:22.256Z,28.50
2023-03-19T01:30:25.178Z,28.60
2023-03-19T01:35:28.996Z,29.80
2023-03-19T01:40:32.943Z,30.50
2023-03-19T01:45:38.024Z,29.60
2023-03-19T01:50:42.354Z,32.30
2023-03-19T01:55:45.825Z,27.00
2023-03-19T02:00:48.673Z,29.60
2023-03-19T02:05:52.185Z,27.30
2023-03-19T02:10:56.076Z,27.10
2023-03-19T02:15:59.060Z,27.80
2023-03-19T02:21:06.153Z,28.10
2023-03-19T02:26:29.335Z,28.30
2023-03-19T02:31:32.445Z,26.40
2023-03-19T02:36:44.301Z,26.40
2023-03-19T02:41:47.177Z,28.30
2023-03-19T02:46:50.563Z,26.80
2023-03-19T02:51:53.443Z,26.00
2023-03-19T02:56:56.358Z,26.00
2023-03-19T03:01:59.369Z,27.90
2023-03-19T03:07:04.493Z,26.70
2023-03-19T03:12:08.474Z,24.90
2023-03-19T03:17:11.644Z,29.30
2023-03-19T03:22:14.891Z,26.60
2023-03-19T03:27:17.752Z,28.00
2023-03-19T03:32:20.984Z,28.30
2023-03-19T03:37:23.842Z,28.20
2023-03-19T03:42:27.227Z,27.90
2023-03-19T03:47:30.043Z,24.40
2023-03-19T03:52:34.273Z,26.30
2023-03-19T03:57:37.360Z,28.80
2023-03-19T04:02:40.537Z,24.20
2023-03-19T04:07:44.088Z,24.10
2023-03-19T04:12:47.724Z,27.60
2023-03-19T04:17:50.559Z,24.20
2023-03-19T04:22:53.511Z,24.00
2023-03-19T04:27:58.236Z,25.10
2023-03-19T04:33:02.148Z,24.60
2023-03-19T04:38:07.963Z,25.70
2023-03-19T04:43:10.811Z,23.80
2023-03-19T04:48:14.890Z,25.10
2023-03-19T04:53:20.464Z,23.90
2023-03-19T04:58:23.451Z,25.50
2023-03-19T05:03:26.400Z,25.10
2023-03-19T05:08:29.557Z,26.20
2023-03-19T05:13:32.778Z,25.00
2023-03-19T05:18:36.411Z,23.40
2023-03-19T05:23:39.939Z,26.40
2023-03-19T05:28:43.867Z,26.80
2023-03-19T05:33:46.807Z,27.80
2023-03-19T05:38:49.741Z,25.50
2023-03-19T05:43:53.230Z,31.90
2023-03-19T05:48:56.115Z,22.70
2023-03-19T05:54:00.901Z,22.00
2023-03-19T05:59:04.349Z,23.40
2023-03-19T06:04:07.400Z,26.50
2023-03-19T06:09:10.377Z,23.20
2023-03-19T06:14:13.275Z,27.60
2023-03-19T06:19:16.553Z,27.90
2023-03-19T06:24:19.525Z,25.00
2023-03-19T06:29:22.520Z,25.10
2023-03-19T06:34:25.576Z,23.50
2023-03-19T06:39:28.858Z,22.90
2023-03-19T06:44:31.822Z,26.30
2023-03-19T06:49:34.960Z,24.40
2023-03-19T06:54:38.562Z,27.00
2023-03-19T06:59:42.179Z,29.70
2023-03-19T07:04:45.259Z,25.20
2023-03-19T07:09:48.806Z,25.80
2023-03-19T07:14:52.042Z,28.20
2023-03-19T07:19:54.956Z,27.90
2023-03-19T07:24:58.317Z,29.50
2023-03-19T07:30:01.525Z,26.50
2023-03-19T07:35:09.898Z,27.60
2023-03-19T07:40:13.140Z,27.80
2023-03-19T07:45:17.847Z,31.70
2023-03-19T07:50:23.606Z,27.40
2023-03-19T07:55:28.021Z,26.30
2023-03-19T08:00:30.996Z,24.90
2023-03-19T08:05:34.020Z,24.30
2023-03-19T08:10:38.357Z,26.20
2023-03-19T08:15:42.630Z,22.80
2023-03-19T08:20:47.037Z,21.00
2023-03-19T08:25:53.575Z,20.10
2023-03-19T08:30:57.051Z,22.20
2023-03-19T08:36:11.636Z,20.40
2023-03-19T08:41:14.652Z,21.30
2023-03-19T08:46:17.980Z,18.30
2023-03-19T08:51:21.685Z,19.90
2023-03-19T08:56:24.566Z,19.90
2023-03-19T09:01:27.647Z,21.90
2023-03-19T09:06:31.469Z,19.00
2023-03-19T09:11:34.856Z,21.90
2023-03-19T09:16:37.995Z,17.80
2023-03-19T09:21:41.381Z,20.20
2023-03-19T09:26:44.718Z,18.50
2023-03-19T09:31:47.729Z,17.40
2023-03-19T09:36:51.774Z,13.30
2023-03-19T09:42:16.228Z,17.20
2023-03-19T09:47:31.412Z,11.70
2023-03-19T09:52:42.222Z,12.20
2023-03-19T09:57:45.231Z,11.50
2023-03-19T10:03:16.691Z,11.80
2023-03-19T10:08:42.048Z,10.40
2023-03-19T10:14:14.562Z,10.80
2023-03-19T10:19:24.091Z,10.70
2023-03-19T10:24:39.516Z,9.50
2023-03-19T10:29:42.447Z,11.70
2023-03-19T10:34:50.521Z,11.00
2023-03-19T10:39:59.726Z,11.50
2023-03-19T10:45:31.006Z,11.30
2023-03-19T10:51:02.364Z,9.40
2023-03-19T10:56:17.972Z,9.50
2023-03-19T11:01:21.095Z,9.80
2023-03-19T11:06:35.711Z,11.70
2023-03-19T11:11:50.699Z,9.30
2023-03-19T11:17:04.605Z,10.20
2023-03-19T11:22:20.705Z,8.90
2023-03-19T11:27:29.780Z,9.90
2023-03-19T11:33:00.570Z,11.50
2023-03-19T11:38:04.187Z,10.60
2023-03-19T11:43:45.565Z,11.20
2023-03-19T11:49:13.231Z,11.20
2023-03-19T11:54:35.009Z,10.00
2023-03-19T11:59:56.480Z,12.20
2023-03-19T12:05:17.669Z,10.20
2023-03-19T12:11:07.329Z,11.00
2023-03-19T12:16:46.205Z,9.20
2023-03-19T12:22:36.804Z,10.90
2023-03-19T12:28:12.810Z,8.80
2023-03-19T12:33:43.715Z,8.40
2023-03-19T12:39:25.581Z,9.00
2023-03-19T12:44:40.382Z,9.10
2023-03-19T12:50:17.578Z,9.90
2023-03-19T12:55:20.568Z,9.20
2023-03-19T13:00:55.758Z,11.20
2023-03-19T13:06:05.132Z,9.70
2023-03-19T13:11:15.573Z,9.30
2023-03-19T13:16:51.450Z,8.80
2023-03-19T13:21:58.129Z,8.70
2023-03-19T13:27:01.782Z,7.20
2023-03-19T13:32:10.277Z,8.40
2023-03-19T13:37:16.158Z,8.90
2023-03-19T13:42:39.211Z,8.40
2023-03-19T13:47:43.561Z,11.10
2023-03-19T13:53:21.631Z,8.90
2023-03-19T13:58:45.955Z,8.80
2023-03-19T14:04:34.386Z,9.30
2023-03-19T14:09:43.511Z,9.10
2023-03-19T14:15:12.155Z,8.80
2023-03-19T14:20:16.697Z,9.90
2023-03-19T14:25:53.095Z,9.30
2023-03-19T14:30:56.468Z,10.70
2023-03-19T14:35:59.368Z,12.30
2023-03-19T14:41:02.609Z,7.70
2023-03-19T14:46:06.020Z,7.60
2023-03-19T14:52:01.612Z,6.40
2023-03-19T14:57:26.096Z,10.40
2023-03-19T15:02:47.216Z,10.20
2023-03-19T15:07:51.028Z,8.60
2023-03-19T15:13:17.183Z,10.10
2023-03-19T15:18:22.029Z,10.20
2023-03-19T15:23:28.853Z,8.20
2023-03-19T15:28:44.782Z,7.30
2023-03-19T15:33:49.012Z,10.20
2023-03-19T15:38:56.180Z,9.70
2023-03-19T15:44:00.449Z,10.80
2023-03-19T15:49:21.485Z,8.80
2023-03-19T15:54:24.364Z,8.70
2023-03-19T15:59:30.217Z,9.00
2023-03-19T16:04:45.666Z,12.50
2023-03-19T16:09:56.394Z,13.80
2023-03-19T16:14:59.309Z,12.20
2023-03-19T16:20:03.814Z,11.50
2023-03-19T16:25:18.869Z,12.20
2023-03-19T16:30:24.714Z,10.60
2023-03-19T16:35:30.203Z,10.10
2023-03-19T16:40:44.861Z,10.80
2023-03-19T16:46:05.983Z,10.90
2023-03-19T16:51:17.926Z,11.90
2023-03-19T16:56:21.357Z,9.80
2023-03-19T17:01:26.696Z,13.10
2023-03-19T17:06:34.344Z,9.20
2023-03-19T17:11:40.786Z,11.60
2023-03-19T17:16:48.442Z,15.90
2023-03-19T17:21:55.277Z,17.60
2023-03-19T17:27:00.770Z,12.20
2023-03-19T17:32:04.417Z,13.00
2023-03-19T17:37:07.399Z,14.80
2023-03-19T17:42:29.453Z,14.30
2023-03-19T17:47:35.366Z,15.00
2023-03-19T17:52:38.563Z,14.00
2023-03-19T17:57:41.393Z,16.70
2023-03-19T18:02:44.453Z,17.60
2023-03-19T18:07:48.702Z,13.60
2023-03-19T18:12:54.643Z,14.50
2023-03-19T18:17:58.214Z,12.20
2023-03-19T18:23:01.287Z,12.20
2023-03-19T18:28:08.497Z,10.20
2023-03-19T18:33:19.922Z,14.50
2023-03-19T18:38:25.377Z,11.70
2023-03-19T18:43:28.266Z,22.40
2023-03-19T18:48:31.496Z,24.60
2023-03-19T18:53:34.354Z,22.70
2023-03-19T18:58:39.374Z,21.50
2023-03-19T19:03:45.239Z,26.20
2023-03-19T19:08:50.608Z,23.30
2023-03-19T19:13:57.160Z,19.10
2023-03-19T19:19:01.347Z,21.80
2023-03-19T19:24:05.955Z,24.30
2023-03-19T19:29:13.809Z,26.70
2023-03-19T19:39:20.334Z,24.30
2023-03-19T19:44:23.224Z,26.80
2023-03-19T19:49:27.266Z,39.40
2023-03-19T19:54:30.894Z,34.70
2023-03-19T19:59:33.770Z,37.80
2023-03-19T20:04:37.119Z,38.80
2023-03-19T20:09:40.251Z,41.10
2023-03-19T20:14:43.362Z,38.90
2023-03-19T20:19:46.417Z,43.40
2023-03-19T20:24:51.363Z,37.40
2023-03-19T20:29:54.995Z,41.20
2023-03-19T20:35:01.127Z,39.50
2023-03-19T20:40:04.659Z,41.90
2023-03-19T20:45:15.193Z,42.10
2023-03-19T20:50:24.882Z,40.30
2023-03-19T20:55:34.115Z,41.90
2023-03-19T21:00:37.170Z,42.50
2023-03-19T21:05:40.270Z,44.80
2023-03-19T21:10:43.576Z,44.70
2023-03-19T21:15:51.917Z,41.00
2023-03-19T21:20:56.877Z,41.00
2023-03-19T21:26:18.031Z,41.20
2023-03-19T21:31:21.556Z,40.80
2023-03-19T21:36:25.637Z,40.60
2023-03-19T21:41:33.024Z,44.50
2023-03-19T21:46:35.949Z,46.70
2023-03-19T21:51:38.889Z,44.00
2023-03-19T21:56:44.455Z,44.70
2023-03-19T22:01:47.484Z,45.80
2023-03-19T22:06:50.615Z,41.60
2023-03-19T22:11:53.482Z,44.60
2023-03-19T22:16:56.829Z,45.40
2023-03-19T22:22:00.024Z,46.90
2023-03-19T22:27:02.962Z,42.80
2023-03-19T22:32:15.455Z,44.10
2023-03-19T22:37:27.750Z,42.80
2023-03-19T22:42:33.098Z,42.10
2023-03-19T22:47:37.568Z,40.40
2023-03-19T22:52:40.719Z,47.40
2023-03-19T22:57:43.988Z,47.00
2023-03-19T23:02:48.258Z,44.40
2023-03-19T23:08:28.511Z,42.70
2023-03-19T23:13:34.070Z,48.30
2023-03-19T23:18:37.328Z,42.60
2023-03-19T23:23:40.390Z,45.50
2023-03-19T23:28:43.461Z,47.30
2023-03-19T23:33:47.815Z,46.90
2023-03-19T23:38:51.793Z,47.60
2023-03-19T23:43:54.943Z,51.20
2023-03-19T23:48:57.813Z,49.30
2023-03-19T23:54:01.733Z,53.30
2023-03-19T23:59:06.071Z,52.40
